Time;durP1;ratioP1;P1;durP2;ratioP2;P2;SDS_P1;SDS_P2;PMS_P1;PMS_P2;Temp;Humidity;BMP_temperature;BMP_pressure;BME280_temperature;BME280_humidity;BME280_pressure;Samples;Min_cycle;Max_cycle;Signal;HPM_P1;HPM_P2
2023/02/19 00:01:12;;;;;;;11.13;6.40;;;11.30;99.90;;;;;;5054236;28;20168;-81
2023/02/19 00:03:38;;;;;;;9.57;6.10;;;11.40;99.90;;;;;;5054598;28;20218;-80
2023/02/19 00:06:05;;;;;;;10.13;7.20;;;11.30;99.90;;;;;;5052975;28;20207;-80
2023/02/19 00:08:32;;;;;;;13.67;8.07;;;11.30;99.90;;;;;;5053142;28;20153;-80
2023/02/19 00:11:02;;;;;;;16.23;9.10;;;11.30;99.90;;;;;;5053294;28;20164;-81
2023/02/19 00:13:28;;;;;;;11.57;8.13;;;11.30;99.90;;;;;;5054637;28;20168;-80
2023/02/19 00:15:55;;;;;;;13.97;8.27;;;11.30;99.90;;;;;;5053693;28;20167;-80
2023/02/19 00:18:21;;;;;;;17.93;8.67;;;11.30;99.90;;;;;;5052876;28;20180;-80
2023/02/19 00:20:46;;;;;;;13.20;8.50;;;11.30;99.90;;;;;;5052301;28;20633;-78
2023/02/19 00:23:14;;;;;;;13.00;8.90;;;11.30;99.90;;;;;;5053582;28;20161;-80
2023/02/19 00:25:39;;;;;;;11.27;8.23;;;11.30;99.90;;;;;;5052553;28;20613;-80
2023/02/19 00:28:05;;;;;;;15.20;8.57;;;11.30;99.90;;;;;;5052469;28;20172;-81
2023/02/19 00:30:31;;;;;;;12.67;8.00;;;11.30;99.90;;;;;;5053557;28;20156;-81
2023/02/19 00:32:57;;;;;;;12.77;6.70;;;11.40;99.90;;;;;;5053022;28;20251;-80
2023/02/19 00:35:22;;;;;;;14.40;7.57;;;11.30;99.90;;;;;;5052167;28;20168;-80
2023/02/19 00:37:48;;;;;;;14.10;7.97;;;11.30;99.90;;;;;;5052804;28;20183;-80
2023/02/19 00:40:14;;;;;;;10.67;7.13;;;11.30;99.90;;;;;;5054059;28;20160;-80
2023/02/19 00:42:39;;;;;;;12.97;7.50;;;11.30;99.90;;;;;;5054218;28;20263;-80
2023/02/19 00:45:05;;;;;;;9.93;7.70;;;11.30;99.90;;;;;;5055503;28;20176;-80
2023/02/19 00:47:31;;;;;;;11.53;7.43;;;11.30;99.90;;;;;;5057159;28;20234;-79
2023/02/19 00:49:56;;;;;;;12.13;6.87;;;11.30;99.90;;;;;;5056796;28;20559;-79
2023/02/19 00:52:22;;;;;;;17.13;8.30;;;11.30;99.90;;;;;;5054939;28;20195;-75
2023/02/19 00:54:47;;;;;;;14.13;7.00;;;11.40;99.90;;;;;;5054961;28;20176;-75
2023/02/19 00:57:13;;;;;;;11.43;6.70;;;11.40;99.90;;;;;;5054521;28;20203;-76
2023/02/19 00:59:39;;;;;;;14.53;7.43;;;11.40;99.90;;;;;;5055934;28;20172;-77
2023/02/19 01:02:06;;;;;;;15.03;6.93;;;11.40;99.90;;;;;;5054665;28;20262;-76
2023/02/19 01:04:32;;;;;;;12.60;7.10;;;11.30;99.90;;;;;;5054591;28;20195;-78
2023/02/19 01:06:57;;;;;;;10.17;6.53;;;11.30;99.90;;;;;;5055723;28;20223;-75
2023/02/19 01:09:23;;;;;;;14.23;7.77;;;11.40;99.90;;;;;;5054659;28;20168;-75
2023/02/19 01:11:48;;;;;;;12.67;6.57;;;11.40;99.90;;;;;;5054243;28;20175;-76
2023/02/19 01:14:14;;;;;;;13.63;7.80;;;11.40;99.90;;;;;;5055907;28;20148;-76
2023/02/19 01:16:40;;;;;;;13.23;7.33;;;11.40;99.90;;;;;;5054486;28;20168;-76
2023/02/19 01:19:06;;;;;;;10.67;5.90;;;11.30;99.90;;;;;;5056179;28;20594;-76
2023/02/19 01:21:32;;;;;;;10.43;6.50;;;11.40;99.90;;;;;;5055871;28;20180;-75
2023/02/19 01:23:58;;;;;;;8.83;5.57;;;11.20;99.90;;;;;;5054470;28;20173;-76
2023/02/19 01:26:29;;;;;;;12.63;6.47;;;11.20;99.90;;;;;;5054440;28;20253;-77
2023/02/19 01:28:56;;;;;;;8.87;5.40;;;11.30;99.90;;;;;;5054495;28;20174;-76
2023/02/19 01:31:23;;;;;;;11.57;5.37;;;11.30;99.90;;;;;;5054217;28;20176;-76
2023/02/19 01:34:00;;;;;;;11.07;4.93;;;11.20;99.90;;;;;;5054411;28;20267;-74
2023/02/19 01:36:26;;;;;;;10.73;5.27;;;11.20;99.90;;;;;;5054018;28;20175;-76
2023/02/19 01:38:52;;;;;;;16.13;6.60;;;11.30;99.90;;;;;;5053908;28;20199;-76
2023/02/19 01:41:22;;;;;;;13.90;5.20;;;11.40;99.90;;;;;;5055002;28;20226;-75
2023/02/19 01:44:17;;;;;;;9.83;5.43;;;11.40;99.90;;;;;;5055054;28;20667;-77
2023/02/19 01:46:45;;;;;;;10.90;4.27;;;11.40;99.90;;;;;;5054956;28;20287;-76
2023/02/19 01:49:27;;;;;;;11.03;4.47;;;11.50;99.90;;;;;;5055682;28;20156;-74
2023/02/19 01:52:00;;;;;;;9.97;4.10;;;11.40;99.90;;;;;;5053958;28;20174;-75
2023/02/19 01:54:29;;;;;;;11.60;4.43;;;11.30;99.90;;;;;;5053058;28;20532;-76
2023/02/19 01:56:55;;;;;;;8.17;4.13;;;11.30;99.90;;;;;;5053276;28;20175;-77
2023/02/19 01:59:22;;;;;;;9.50;4.30;;;11.30;99.90;;;;;;5055286;28;20271;-76
2023/02/19 02:01:48;;;;;;;13.07;4.07;;;11.20;99.90;;;;;;5054052;28;20171;-75
2023/02/19 02:04:16;;;;;;;13.20;3.83;;;11.30;99.90;;;;;;5053864;28;20565;-76
2023/02/19 02:06:56;;;;;;;11.07;3.67;;;11.30;99.90;;;;;;5053210;28;20633;-76
2023/02/19 02:12:11;;;;;;;14.23;4.80;;;11.40;99.90;;;;;;5055305;28;20230;-76
2023/02/19 02:14:42;;;;;;;12.53;3.73;;;11.40;99.90;;;;;;5053978;28;20210;-76
2023/02/19 02:17:29;;;;;;;9.17;3.30;;;11.40;99.90;;;;;;5053469;28;20172;-76
2023/02/19 02:20:42;;;;;;;13.03;4.07;;;11.40;99.90;;;;;;5055112;28;20151;-76
2023/02/19 02:23:25;;;;;;;10.97;3.47;;;11.40;99.90;;;;;;5032524;28;20231;-76
2023/02/19 02:26:25;;;;;;;13.77;3.97;;;11.30;99.90;;;;;;5054229;28;20209;-75
2023/02/19 02:29:06;;;;;;;8.70;2.90;;;11.30;99.90;;;;;;5053460;28;20180;-76
2023/02/19 02:31:42;;;;;;;9.83;2.80;;;11.30;99.90;;;;;;5053210;28;20180;-77
2023/02/19 02:34:19;;;;;;;12.90;4.23;;;11.30;99.90;;;;;;5053267;28;20662;-76
2023/02/19 02:36:50;;;;;;;10.87;3.07;;;11.20;99.90;;;;;;5052998;28;20187;-75
2023/02/19 02:39:21;;;;;;;8.50;2.57;;;11.20;99.90;;;;;;5053170;28;20183;-78
2023/02/19 02:44:40;;;;;;;6.27;2.30;;;11.20;99.90;;;;;;5054849;28;20245;-80
2023/02/19 02:47:39;;;;;;;11.73;2.80;;;11.20;99.90;;;;;;5054355;28;20594;-79
2023/02/19 02:50:05;;;;;;;10.63;2.50;;;11.20;99.90;;;;;;5054373;28;20176;-80
2023/02/19 02:55:20;;;;;;;9.37;2.20;;;11.30;99.90;;;;;;5053853;28;20202;-81
2023/02/19 02:57:45;;;;;;;9.93;3.10;;;11.20;99.90;;;;;;5052923;28;20179;-79
2023/02/19 03:00:12;;;;;;;9.20;2.70;;;11.20;99.90;;;;;;5052552;28;20168;-80
2023/02/19 03:02:40;;;;;;;8.67;2.77;;;11.20;99.90;;;;;;5054253;28;20168;-81
2023/02/19 03:08:10;;;;;;;7.27;2.33;;;11.30;99.90;;;;;;5052970;28;20740;-78
2023/02/19 03:10:58;;;;;;;9.57;1.97;;;11.30;99.90;;;;;;5052529;28;20513;-81
2023/02/19 03:19:17;;;;;;;9.93;2.00;;;11.30;99.90;;;;;;5054417;28;20229;-79
2023/02/19 03:21:56;;;;;;;11.30;2.97;;;11.30;99.90;;;;;;5053111;28;20169;-78
2023/02/19 03:27:14;;;;;;;9.30;2.53;;;11.30;99.90;;;;;;5053859;28;20263;-79
2023/02/19 03:29:42;;;;;;;11.70;2.80;;;11.20;99.90;;;;;;5052801;28;20157;-79
2023/02/19 03:32:13;;;;;;;12.10;2.70;;;11.20;99.90;;;;;;5052862;28;20163;-79
2023/02/19 03:35:04;;;;;;;11.53;2.23;;;11.30;99.90;;;;;;5052917;28;20619;-78
2023/02/19 03:37:45;;;;;;;14.43;2.83;;;11.40;99.90;;;;;;5052901;28;20167;-80
2023/02/19 03:40:11;;;;;;;11.13;2.23;;;11.30;99.90;;;;;;5053644;28;20214;-79
2023/02/19 03:42:54;;;;;;;9.47;1.97;;;11.30;99.90;;;;;;5054126;28;20166;-79
2023/02/19 03:45:32;;;;;;;14.80;2.33;;;11.30;99.90;;;;;;5051756;28;20174;-80
2023/02/19 03:48:00;;;;;;;8.97;2.20;;;11.30;99.90;;;;;;5053406;28;20732;-79
2023/02/19 03:50:43;;;;;;;15.80;2.50;;;11.30;99.90;;;;;;5051674;28;20214;-80
2023/02/19 03:53:17;;;;;;;10.37;2.07;;;11.30;99.90;;;;;;5051807;28;20172;-79
2023/02/19 03:56:15;;;;;;;13.17;2.73;;;11.30;99.90;;;;;;5053422;28;20227;-80
2023/02/19 03:59:01;;;;;;;8.30;2.20;;;11.40;99.90;;;;;;5053262;28;20259;-78
2023/02/19 04:01:37;;;;;;;8.70;2.20;;;11.30;99.90;;;;;;5051866;28;20214;-80
2023/02/19 04:04:15;;;;;;;11.37;2.20;;;11.30;99.90;;;;;;5052256;28;20167;-80
2023/02/19 04:06:51;;;;;;;7.53;1.83;;;11.30;99.90;;;;;;5051161;28;20574;-81
2023/02/19 04:09:19;;;;;;;12.13;2.87;;;11.30;99.90;;;;;;5053093;28;20187;-80
2023/02/19 04:11:46;;;;;;;17.13;2.63;;;11.40;99.90;;;;;;5051863;28;20152;-80
2023/02/19 04:14:27;;;;;;;8.43;1.77;;;11.40;99.90;;;;;;5053175;28;20148;-79
2023/02/19 04:17:00;;;;;;;13.83;2.53;;;11.30;99.90;;;;;;5053310;28;20226;-81
2023/02/19 04:19:30;;;;;;;8.67;2.30;;;11.30;99.90;;;;;;5051476;28;20176;-79
2023/02/19 04:21:57;;;;;;;12.17;1.93;;;11.30;99.90;;;;;;5052824;28;20156;-80
2023/02/19 04:24:30;;;;;;;10.93;2.23;;;11.30;99.90;;;;;;5051714;28;20251;-80
2023/02/19 04:26:56;;;;;;;15.80;2.97;;;11.30;99.90;;;;;;5051979;28;20203;-79
2023/02/19 04:29:22;;;;;;;11.07;2.30;;;11.30;99.90;;;;;;5051639;28;20162;-81
2023/02/19 04:31:48;;;;;;;15.10;2.33;;;11.20;99.90;;;;;;5053499;28;20156;-78
2023/02/19 04:34:13;;;;;;;14.63;2.63;;;11.30;99.90;;;;;;5053399;28;20209;-80
2023/02/19 04:36:39;;;;;;;12.43;2.83;;;11.30;99.90;;;;;;5051606;28;20203;-77
2023/02/19 04:39:04;;;;;;;15.73;2.53;;;11.30;99.90;;;;;;5052143;28;20193;-79
2023/02/19 04:41:30;;;;;;;13.83;3.47;;;11.30;99.90;;;;;;5053099;28;20184;-80
2023/02/19 04:43:56;;;;;;;9.13;2.60;;;11.30;99.90;;;;;;5052098;28;20673;-78
2023/02/19 04:46:21;;;;;;;9.30;2.53;;;11.20;99.90;;;;;;5051914;28;20286;-79
2023/02/19 04:48:47;;;;;;;12.10;2.20;;;11.30;99.90;;;;;;5053306;28;20531;-79
2023/02/19 04:51:15;;;;;;;7.40;2.30;;;11.20;99.90;;;;;;5052861;28;20160;-78
2023/02/19 04:53:41;;;;;;;11.30;2.30;;;11.30;99.90;;;;;;5051328;28;20624;-80
2023/02/19 04:56:16;;;;;;;9.73;1.83;;;11.30;99.90;;;;;;5052604;28;20574;-81
2023/02/19 04:58:44;;;;;;;10.13;2.27;;;11.30;99.90;;;;;;5052740;28;20163;-79
2023/02/19 05:01:10;;;;;;;13.47;2.27;;;11.40;99.90;;;;;;5050961;28;20172;-78
2023/02/19 05:03:36;;;;;;;9.93;1.80;;;11.50;99.90;;;;;;5051372;28;20641;-81
2023/02/19 05:06:08;;;;;;;8.40;2.20;;;11.50;99.90;;;;;;5050614;28;20578;-79
2023/02/19 05:08:34;;;;;;;11.13;2.50;;;11.40;99.90;;;;;;5051113;28;20156;-80
2023/02/19 05:11:03;;;;;;;14.80;2.50;;;11.40;99.90;;;;;;5052869;28;20617;-79
2023/02/19 05:13:29;;;;;;;13.57;2.47;;;11.30;99.90;;;;;;5052825;28;20659;-81
2023/02/19 05:15:56;;;;;;;8.60;2.20;;;11.20;99.90;;;;;;5051847;28;20172;-80
2023/02/19 05:18:22;;;;;;;11.10;2.50;;;11.20;99.90;;;;;;5051774;28;20165;-79
2023/02/19 05:20:49;;;;;;;12.77;2.20;;;11.20;99.90;;;;;;5053791;28;20214;-78
2023/02/19 05:23:15;;;;;;;10.73;2.60;;;11.20;99.90;;;;;;5052037;28;20563;-81
2023/02/19 05:25:40;;;;;;;10.87;2.50;;;11.20;99.90;;;;;;5053637;28;20178;-78
2023/02/19 05:28:18;;;;;;;9.43;2.47;;;11.20;99.90;;;;;;5051987;28;20238;-80
2023/02/19 05:30:51;;;;;;;13.07;2.90;;;11.20;99.90;;;;;;5055056;28;20227;-79
2023/02/19 05:33:21;;;;;;;12.10;2.50;;;11.30;99.90;;;;;;5055939;28;20198;-79
2023/02/19 05:35:49;;;;;;;12.03;2.40;;;11.30;99.90;;;;;;5054820;28;20636;-78
2023/02/19 05:38:15;;;;;;;11.80;2.63;;;11.30;99.90;;;;;;5055598;28;20167;-81
2023/02/19 05:40:43;;;;;;;15.17;2.23;;;11.30;99.90;;;;;;5057001;28;20250;-79
2023/02/19 05:43:09;;;;;;;13.70;2.47;;;11.20;99.90;;;;;;5056976;28;20238;-79
2023/02/19 05:45:36;;;;;;;11.63;2.40;;;11.20;99.90;;;;;;5057015;28;20152;-79
2023/02/19 05:48:03;;;;;;;10.93;2.63;;;11.20;99.90;;;;;;5055692;28;20204;-80
2023/02/19 05:50:31;;;;;;;13.50;2.53;;;11.20;99.90;;;;;;5055840;28;20222;-81
2023/02/19 05:53:02;;;;;;;12.40;2.77;;;11.30;99.90;;;;;;5055935;28;20160;-80
2023/02/19 05:55:33;;;;;;;9.67;2.03;;;11.50;99.90;;;;;;5054730;28;20243;-79
2023/02/19 05:57:59;;;;;;;14.37;2.43;;;11.40;99.90;;;;;;5055617;28;20687;-80
2023/02/19 06:00:26;;;;;;;16.53;2.50;;;11.30;99.90;;;;;;5055580;28;20230;-81
2023/02/19 06:02:52;;;;;;;12.60;3.30;;;11.30;99.90;;;;;;5054629;28;20168;-79
2023/02/19 06:05:18;;;;;;;13.80;2.40;;;11.20;99.90;;;;;;5056269;28;20199;-80
2023/02/19 06:07:45;;;;;;;18.70;3.47;;;11.30;99.90;;;;;;5055079;28;20197;-79
2023/02/19 06:10:12;;;;;;;12.33;2.53;;;11.30;99.90;;;;;;5055908;28;20172;-80
2023/02/19 06:12:38;;;;;;;10.43;2.40;;;11.20;99.90;;;;;;5053391;28;20221;-76
2023/02/19 06:15:05;;;;;;;13.70;2.57;;;11.30;99.90;;;;;;5053442;28;20536;-76
2023/02/19 06:17:32;;;;;;;13.00;2.83;;;11.10;99.90;;;;;;5054282;28;20267;-76
2023/02/19 06:19:57;;;;;;;16.23;2.67;;;11.20;99.90;;;;;;5053442;28;20177;-76
2023/02/19 06:22:24;;;;;;;11.50;3.37;;;11.30;99.90;;;;;;5053320;28;20178;-76
2023/02/19 06:24:51;;;;;;;16.27;2.90;;;11.30;99.90;;;;;;5053426;28;20195;-76
2023/02/19 06:27:17;;;;;;;9.67;1.83;;;11.20;99.90;;;;;;5054643;28;20192;-76
2023/02/19 06:29:43;;;;;;;15.33;2.40;;;11.20;99.90;;;;;;5053147;28;20612;-77
2023/02/19 06:32:09;;;;;;;14.83;2.67;;;11.10;99.90;;;;;;5052936;28;20175;-75
2023/02/19 06:34:35;;;;;;;15.13;1.87;;;11.20;99.90;;;;;;5054258;28;20648;-75
2023/02/19 06:37:01;;;;;;;10.20;2.07;;;11.20;99.90;;;;;;5052845;28;20164;-77
2023/02/19 06:39:27;;;;;;;11.90;2.10;;;11.20;99.90;;;;;;5052759;28;20199;-75
2023/02/19 06:41:57;;;;;;;15.43;2.80;;;11.20;99.90;;;;;;5054062;28;20175;-75
2023/02/19 06:44:23;;;;;;;11.80;2.80;;;11.30;99.90;;;;;;5053914;28;20652;-75
2023/02/19 06:46:49;;;;;;;13.70;3.13;;;11.20;99.90;;;;;;5052413;28;20357;-76
2023/02/19 06:49:15;;;;;;;11.10;2.03;;;11.20;99.90;;;;;;5054322;28;20204;-76
2023/02/19 06:51:41;;;;;;;10.53;2.47;;;11.20;99.90;;;;;;5053020;28;20198;-76
2023/02/19 06:54:07;;;;;;;11.33;2.40;;;11.20;99.90;;;;;;5052585;28;20164;-75
2023/02/19 06:56:38;;;;;;;11.33;2.27;;;11.30;99.90;;;;;;5052595;28;20190;-75
2023/02/19 06:59:07;;;;;;;10.27;2.80;;;11.40;99.90;;;;;;5052709;28;20303;-75
2023/02/19 07:01:34;;;;;;;6.77;2.27;;;11.30;99.90;;;;;;5052684;28;20265;-76
2023/02/19 07:04:00;;;;;;;8.80;2.30;;;11.30;99.90;;;;;;5053970;28;20160;-75
2023/02/19 07:06:26;;;;;;;10.40;2.10;;;11.40;99.90;;;;;;5053524;28;20226;-75
2023/02/19 07:08:55;;;;;;;13.60;2.40;;;11.30;99.90;;;;;;5052577;28;20176;-75
2023/02/19 07:11:21;;;;;;;11.17;2.10;;;11.30;99.90;;;;;;5052586;28;20259;-75
2023/02/19 07:13:52;;;;;;;12.17;3.03;;;11.30;99.90;;;;;;5053898;28;20172;-75
2023/02/19 07:16:18;;;;;;;8.33;2.20;;;11.20;99.90;;;;;;5053590;28;20171;-76
2023/02/19 07:18:43;;;;;;;8.07;2.30;;;11.00;99.90;;;;;;5053443;28;20186;-76
2023/02/19 07:21:12;;;;;;;14.33;2.67;;;11.20;99.90;;;;;;5052595;28;20175;-76
2023/02/19 07:23:41;;;;;;;9.17;2.30;;;11.20;99.90;;;;;;5052455;28;20169;-75
2023/02/19 07:26:15;;;;;;;13.90;2.50;;;11.20;99.90;;;;;;5053098;28;20642;-75
2023/02/19 07:28:46;;;;;;;10.63;2.60;;;11.10;99.90;;;;;;5053263;28;20636;-76
2023/02/19 07:31:13;;;;;;;10.07;2.50;;;11.30;99.90;;;;;;5053178;28;20243;-75
2023/02/19 07:33:43;;;;;;;15.43;2.63;;;11.20;99.90;;;;;;5052346;28;20160;-76
2023/02/19 07:36:09;;;;;;;12.67;3.40;;;11.30;99.90;;;;;;5052113;28;20206;-75
2023/02/19 07:38:34;;;;;;;12.13;2.17;;;11.20;99.90;;;;;;5052131;28;20175;-75
2023/02/19 07:41:02;;;;;;;14.03;2.70;;;11.40;99.90;;;;;;5053162;28;20165;-75
2023/02/19 07:43:32;;;;;;;12.47;2.60;;;11.40;99.90;;;;;;5053295;28;20181;-75
2023/02/19 07:46:01;;;;;;;9.70;2.30;;;11.40;99.90;;;;;;5051759;28;20175;-75
2023/02/19 07:48:26;;;;;;;11.70;2.33;;;11.30;99.90;;;;;;5051637;28;20184;-76
2023/02/19 07:50:56;;;;;;;12.07;3.23;;;11.40;99.90;;;;;;5052757;28;20525;-77
2023/02/19 07:53:23;;;;;;;10.07;2.33;;;11.30;99.90;;;;;;5051069;28;20271;-76
2023/02/19 07:55:49;;;;;;;9.77;2.30;;;11.50;99.90;;;;;;5052824;28;20527;-76
2023/02/19 07:58:15;;;;;;;10.30;2.47;;;11.50;99.90;;;;;;5052666;28;20169;-75
2023/02/19 08:00:42;;;;;;;10.93;2.50;;;11.60;99.90;;;;;;5051574;28;20652;-76
2023/02/19 08:03:08;;;;;;;10.93;2.30;;;11.60;99.90;;;;;;5051819;28;20171;-77
2023/02/19 08:05:37;;;;;;;10.90;2.63;;;11.50;99.90;;;;;;5051370;28;20191;-75
2023/02/19 08:08:06;;;;;;;9.97;2.53;;;11.40;99.90;;;;;;5051166;28;20207;-75
2023/02/19 08:13:21;;;;;;;10.27;2.20;;;11.40;99.90;;;;;;5052521;28;20659;-76
2023/02/19 08:16:16;;;;;;;12.17;2.37;;;11.50;99.90;;;;;;5052678;28;20148;-76
2023/02/19 08:18:42;;;;;;;9.53;1.80;;;11.50;99.90;;;;;;5050528;28;20653;-76
2023/02/19 08:21:08;;;;;;;9.53;2.67;;;11.40;99.90;;;;;;5051025;28;20161;-77
2023/02/19 08:23:34;;;;;;;10.23;1.80;;;11.40;99.90;;;;;;5052607;28;20152;-75
2023/02/19 08:26:01;;;;;;;8.80;1.93;;;11.20;99.90;;;;;;5051268;28;20251;-75
2023/02/19 08:28:27;;;;;;;10.33;2.37;;;11.20;99.90;;;;;;5052119;28;20145;-75
2023/02/19 08:31:02;;;;;;;11.60;2.33;;;11.10;99.90;;;;;;5052196;28;20209;-75
2023/02/19 08:33:30;;;;;;;8.17;2.53;;;11.20;99.90;;;;;;5050981;28;20629;-75
2023/02/19 08:36:00;;;;;;;8.37;1.90;;;11.30;99.90;;;;;;5051121;28;20644;-75
2023/02/19 08:38:25;;;;;;;10.80;2.73;;;11.20;99.90;;;;;;5052202;28;20675;-76
2023/02/19 08:40:52;;;;;;;10.57;2.20;;;11.30;99.90;;;;;;5052451;28;20254;-76
2023/02/19 08:43:18;;;;;;;7.77;2.50;;;11.20;99.90;;;;;;5050690;28;20165;-77
2023/02/19 08:45:46;;;;;;;9.70;2.20;;;11.10;99.90;;;;;;5052224;28;20714;-75
2023/02/19 08:48:12;;;;;;;13.43;2.20;;;11.10;99.90;;;;;;5051973;28;20203;-75
2023/02/19 08:50:38;;;;;;;12.07;2.50;;;11.20;99.90;;;;;;5051946;28;20209;-76
2023/02/19 08:53:05;;;;;;;8.33;1.83;;;11.30;99.90;;;;;;5050940;28;20199;-76
2023/02/19 08:55:31;;;;;;;11.53;2.53;;;11.20;99.90;;;;;;5050971;28;20596;-76
2023/02/19 08:57:56;;;;;;;9.07;2.00;;;11.20;99.90;;;;;;5050572;28;20160;-76
2023/02/19 09:00:23;;;;;;;9.40;2.57;;;11.30;99.90;;;;;;5050879;28;20175;-77
2023/02/19 09:02:49;;;;;;;12.93;2.53;;;11.40;99.90;;;;;;5050687;28;20690;-77
2023/02/19 09:05:16;;;;;;;12.23;2.47;;;11.40;99.90;;;;;;5052231;28;20191;-76
2023/02/19 09:07:42;;;;;;;13.13;2.50;;;11.40;99.90;;;;;;5054714;28;20203;-75
2023/02/19 09:10:11;;;;;;;6.57;2.13;;;11.40;99.90;;;;;;5054534;28;20174;-77
2023/02/19 09:12:37;;;;;;;9.03;2.30;;;11.30;99.90;;;;;;5055305;28;20170;-76
2023/02/19 09:15:04;;;;;;;10.00;2.33;;;11.20;99.90;;;;;;5055725;28;20163;-75
2023/02/19 09:17:30;;;;;;;7.50;2.13;;;11.40;99.90;;;;;;5055482;28;20160;-77
2023/02/19 09:19:55;;;;;;;13.40;2.40;;;11.50;99.90;;;;;;5055411;28;20517;-76
2023/02/19 09:22:21;;;;;;;10.30;2.70;;;11.60;99.90;;;;;;5054197;28;20237;-77
2023/02/19 09:24:46;;;;;;;10.73;2.20;;;11.50;99.90;;;;;;5055404;28;20160;-76
2023/02/19 09:27:17;;;;;;;8.07;2.10;;;11.60;99.90;;;;;;5054005;28;20568;-76
2023/02/19 09:29:43;;;;;;;11.07;2.20;;;11.60;99.90;;;;;;5054189;28;20613;-75
2023/02/19 09:32:10;;;;;;;13.60;2.70;;;11.70;99.90;;;;;;5054121;28;20251;-75
2023/02/19 09:34:37;;;;;;;8.90;2.53;;;11.50;99.90;;;;;;5055459;28;20144;-78
2023/02/19 09:37:04;;;;;;;12.93;2.67;;;11.50;99.90;;;;;;5054174;28;20260;-76
2023/02/19 09:39:29;;;;;;;9.73;2.30;;;11.60;99.90;;;;;;5053742;28;20171;-77
2023/02/19 09:42:03;;;;;;;10.07;2.57;;;11.70;99.90;;;;;;5054035;28;20176;-76
2023/02/19 09:44:46;;;;;;;10.67;2.10;;;11.70;99.90;;;;;;5054064;28;20167;-76
2023/02/19 09:47:22;;;;;;;9.80;3.03;;;11.80;99.90;;;;;;5050884;28;20200;-76
2023/02/19 09:49:51;;;;;;;8.67;2.03;;;11.80;99.90;;;;;;5054910;28;20182;-76
2023/02/19 09:52:41;;;;;;;7.77;2.50;;;11.90;99.90;;;;;;5053914;28;20168;-75
2023/02/19 09:55:33;;;;;;;11.57;2.40;;;11.90;99.90;;;;;;5053539;28;20168;-75
2023/02/19 09:58:13;;;;;;;9.77;2.47;;;12.10;99.90;;;;;;5053574;28;20175;-76
2023/02/19 10:00:38;;;;;;;9.37;1.97;;;12.20;99.90;;;;;;5053679;28;20191;-75
2023/02/19 10:03:13;;;;;;;8.67;1.97;;;12.30;99.90;;;;;;5053369;28;20173;-75
2023/02/19 10:05:40;;;;;;;9.13;2.53;;;12.30;99.90;;;;;;5053217;28;20559;-76
2023/02/19 10:08:16;;;;;;;12.00;2.80;;;12.40;99.90;;;;;;5053230;28;20192;-76
2023/02/19 10:10:43;;;;;;;7.63;2.17;;;12.40;99.90;;;;;;5053119;28;20554;-75
2023/02/19 10:13:20;;;;;;;4.20;2.20;;;12.30;99.90;;;;;;5054562;28;20154;-75
2023/02/19 10:15:53;;;;;;;8.60;3.07;;;12.40;99.90;;;;;;5054010;28;20179;-75
2023/02/19 10:18:22;;;;;;;7.77;2.60;;;12.20;99.90;;;;;;5054664;28;20182;-75
2023/02/19 10:20:50;;;;;;;8.17;2.23;;;12.10;99.90;;;;;;5053527;28;20524;-75
2023/02/19 10:23:16;;;;;;;9.93;3.43;;;12.00;99.90;;;;;;5053240;28;20178;-76
2023/02/19 10:25:56;;;;;;;9.93;2.43;;;12.20;99.90;;;;;;5054449;28;20182;-76
2023/02/19 10:28:26;;;;;;;11.13;2.50;;;12.10;99.90;;;;;;5054476;28;20606;-76
2023/02/19 10:30:56;;;;;;;13.40;2.63;;;12.20;99.90;;;;;;5053074;28;20173;-76
2023/02/19 10:33:22;;;;;;;8.63;2.50;;;12.10;99.90;;;;;;5054429;28;20170;-76
2023/02/19 10:35:51;;;;;;;11.87;3.20;;;12.10;99.90;;;;;;5052805;28;20579;-75
2023/02/19 10:38:19;;;;;;;7.83;2.73;;;12.10;99.90;;;;;;5054164;28;20177;-76
2023/02/19 10:40:45;;;;;;;10.03;2.50;;;12.20;99.90;;;;;;5054456;28;20669;-75
2023/02/19 10:43:30;;;;;;;10.93;2.67;;;12.30;99.90;;;;;;5054344;28;20159;-75
2023/02/19 10:45:57;;;;;;;9.10;2.33;;;12.30;99.90;;;;;;5053175;28;20164;-76
2023/02/19 10:48:29;;;;;;;8.23;2.87;;;12.40;99.90;;;;;;5053210;28;20172;-76
2023/02/19 10:51:03;;;;;;;7.93;3.37;;;12.40;99.90;;;;;;5053318;28;20168;-75
2023/02/19 10:53:44;;;;;;;13.30;3.10;;;12.30;99.90;;;;;;5054025;28;20150;-76
2023/02/19 10:56:14;;;;;;;14.00;3.93;;;12.30;99.90;;;;;;5054376;28;20162;-75
2023/02/19 10:58:43;;;;;;;11.37;2.77;;;12.50;99.90;;;;;;5053024;28;20183;-76
2023/02/19 11:01:12;;;;;;;8.87;2.90;;;12.50;99.90;;;;;;5053009;28;20174;-77
2023/02/19 11:03:38;;;;;;;7.40;2.33;;;12.40;99.90;;;;;;5053840;28;20175;-76
2023/02/19 11:06:07;;;;;;;10.97;2.60;;;12.40;99.90;;;;;;5052736;28;20194;-75
2023/02/19 11:08:50;;;;;;;8.10;2.73;;;12.50;99.90;;;;;;5053447;28;20162;-76
2023/02/19 11:11:35;;;;;;;10.50;2.87;;;12.70;99.90;;;;;;5052454;28;20169;-75
2023/02/19 11:14:18;;;;;;;9.90;3.00;;;12.90;99.90;;;;;;5052200;28;20253;-77
2023/02/19 11:16:55;;;;;;;10.33;3.30;;;12.80;99.90;;;;;;5053699;28;21332;-76
2023/02/19 11:19:33;;;;;;;6.70;2.30;;;12.80;99.90;;;;;;5052323;28;20166;-77
2023/02/19 11:22:00;;;;;;;6.97;2.43;;;12.70;99.90;;;;;;5051633;28;20211;-76
2023/02/19 11:24:33;;;;;;;5.07;2.40;;;12.40;99.90;;;;;;5053608;28;20164;-76
2023/02/19 11:27:04;;;;;;;9.83;2.30;;;12.30;99.90;;;;;;5051583;28;20192;-77
2023/02/19 11:29:33;;;;;;;5.07;2.23;;;12.10;99.90;;;;;;5051527;28;20183;-75
2023/02/19 11:32:26;;;;;;;10.70;2.73;;;12.10;99.90;;;;;;5052007;28;20512;-77
2023/02/19 11:35:12;;;;;;;9.17;2.53;;;12.00;99.90;;;;;;5053219;28;20212;-75
2023/02/19 11:37:56;;;;;;;4.90;2.20;;;11.90;99.90;;;;;;5051550;28;20177;-76
2023/02/19 11:40:40;;;;;;;7.67;2.87;;;11.90;99.90;;;;;;5051610;28;20629;-77
2023/02/19 11:43:19;;;;;;;7.43;2.30;;;12.00;99.90;;;;;;5051743;28;20209;-75
2023/02/19 11:46:03;;;;;;;8.27;2.40;;;12.10;99.90;;;;;;5051628;28;20609;-75
2023/02/19 11:48:36;;;;;;;12.13;2.87;;;12.30;99.90;;;;;;5051699;28;20197;-75
2023/02/19 11:51:30;;;;;;;10.57;4.30;;;12.40;99.90;;;;;;5051556;28;20174;-76
2023/02/19 11:54:17;;;;;;;12.03;2.67;;;12.30;99.90;;;;;;5052886;28;20173;-77
2023/02/19 11:56:47;;;;;;;9.63;2.80;;;12.20;99.90;;;;;;5051553;28;20169;-76
2023/02/19 11:59:55;;;;;;;11.03;2.93;;;12.20;99.90;;;;;;5051594;28;20212;-76
2023/02/19 12:02:39;;;;;;;7.77;2.23;;;12.40;99.90;;;;;;5051465;28;20234;-76
2023/02/19 12:05:40;;;;;;;5.67;2.17;;;12.20;99.90;;;;;;5052459;28;20817;-77
2023/02/19 12:08:43;;;;;;;9.40;2.93;;;12.20;99.90;;;;;;5051190;28;20294;-75
2023/02/19 12:11:28;;;;;;;11.47;3.23;;;12.00;99.90;;;;;;5052770;28;20209;-76
2023/02/19 12:14:02;;;;;;;6.77;2.27;;;12.10;99.90;;;;;;5052882;28;20156;-75
2023/02/19 12:16:54;;;;;;;5.10;2.40;;;12.20;99.90;;;;;;5051485;28;20165;-77
2023/02/19 12:19:20;;;;;;;11.33;3.33;;;12.20;99.90;;;;;;5052358;28;20180;-76
2023/02/19 12:22:07;;;;;;;7.90;2.47;;;12.30;99.90;;;;;;5051531;28;20267;-76
2023/02/19 12:24:50;;;;;;;5.70;2.53;;;12.40;99.90;;;;;;5050968;28;20206;-76
2023/02/19 12:27:52;;;;;;;5.33;2.47;;;12.40;99.90;;;;;;5050849;28;20252;-76
2023/02/19 12:30:24;;;;;;;7.07;2.70;;;12.50;99.90;;;;;;5051100;28;20182;-76
2023/02/19 12:33:18;;;;;;;7.73;3.47;;;12.40;99.90;;;;;;5051184;28;20176;-77
2023/02/19 12:36:01;;;;;;;5.13;2.57;;;12.20;99.90;;;;;;5052435;28;20156;-75
2023/02/19 12:38:42;;;;;;;6.73;2.70;;;12.00;99.90;;;;;;5051146;28;20168;-76
2023/02/19 12:41:14;;;;;;;5.03;2.77;;;11.90;99.90;;;;;;5055288;28;20539;-77
2023/02/19 12:43:44;;;;;;;5.60;2.60;;;11.90;99.90;;;;;;5055185;28;20172;-75
2023/02/19 12:46:32;;;;;;;7.50;2.97;;;12.00;99.90;;;;;;5054933;28;20193;-77
2023/02/19 12:49:04;;;;;;;3.60;2.33;;;12.00;99.90;;;;;;5055987;28;20177;-75
2023/02/19 12:51:36;;;;;;;3.97;2.37;;;12.00;99.90;;;;;;5054980;28;20629;-76
2023/02/19 12:54:11;;;;;;;6.23;2.80;;;11.80;99.90;;;;;;5056218;28;20185;-75
2023/02/19 12:57:02;;;;;;;8.20;3.00;;;11.70;99.90;;;;;;5054942;28;20172;-76
2023/02/19 12:59:35;;;;;;;5.93;2.63;;;11.80;99.90;;;;;;5046188;28;20194;-75
2023/02/19 13:02:22;;;;;;;6.40;2.30;;;11.80;99.90;;;;;;5055981;28;20166;-75
2023/02/19 13:05:25;;;;;;;8.97;2.60;;;11.80;99.90;;;;;;5055842;28;20204;-76
2023/02/19 13:08:23;;;;;;;7.03;2.50;;;11.80;99.90;;;;;;5055450;28;20237;-76
2023/02/19 13:11:00;;;;;;;8.20;2.43;;;11.90;99.90;;;;;;5054758;28;20202;-76
2023/02/19 13:13:45;;;;;;;5.47;2.37;;;11.80;99.90;;;;;;5054576;28;20643;-76
2023/02/19 13:16:15;;;;;;;10.20;2.87;;;11.80;99.90;;;;;;5054355;28;20168;-75
2023/02/19 13:18:57;;;;;;;6.20;1.73;;;12.00;99.90;;;;;;5055584;28;20175;-75
2023/02/19 13:24:24;;;;;;;8.10;2.10;;;11.90;99.90;;;;;;5055685;28;20259;-74
2023/02/19 13:27:22;;;;;;;5.97;2.10;;;12.10;99.90;;;;;;5054013;28;20238;-76
2023/02/19 13:30:13;;;;;;;5.87;2.00;;;12.00;99.90;;;;;;5055472;28;20172;-77